Terminal Aerodrome Forecast
Issued by NWS Omaha/Valley, NE

Home | Current Version | Previous Version | Text Only | Print | Product List | Glossary On
Versions: 1 2 3 4 5 6 7 8 9 10 11 12 13 14 15 16 17 18 19 20 21 22 23 24 25 26 27 28 29 30 31 32
000
FTUS43 KOAX 051847 AAB
TAFLNK
TAF AMD
KLNK 051847Z 0519/0618 16015G24KT P6SM SCT040 SCT250
     FM060100 16014G22KT P6SM SCT100 SCT250
     FM060900 18015KT P6SM BKN100 PROB30 0612/0616 5SM TSRA
      BKN040CB=

USA.gov is the U.S. government's official web portal to all federal, state and local government web resources and services.